Time;durP1;ratioP1;P1;durP2;ratioP2;P2;SDS_P1;SDS_P2;PMS_P1;PMS_P2;Temp;Humidity;BMP_temperature;BMP_pressure;BME280_temperature;BME280_humidity;BME280_pressure;Samples;Min_cycle;Max_cycle;Signal;HPM_P1;HPM_P2
2022/12/31 00:01:42;;;;;;;21.90;5.18;;;;;;;15.42;98.16;101108.22;5031332;28;20546;-57
2022/12/31 00:04:08;;;;;;;18.40;4.10;;;;;;;15.39;98.01;101125.72;5030875;28;20467;-57
2022/12/31 00:06:35;;;;;;;16.42;4.03;;;;;;;15.41;98.03;101120.06;5013529;28;20030;-57
2022/12/31 00:09:04;;;;;;;20.27;4.47;;;;;;;15.39;98.01;101128.41;5011700;28;20042;-57
2022/12/31 00:11:32;;;;;;;19.30;4.07;;;;;;;15.39;97.67;101114.09;5011027;28;20025;-57
2022/12/31 00:13:58;;;;;;;23.15;4.40;;;;;;;15.35;98.02;101118.31;5012954;28;20034;-57
2022/12/31 00:16:27;;;;;;;16.88;4.05;;;;;;;15.34;98.10;101138.25;5011384;28;20049;-57
2022/12/31 00:18:58;;;;;;;10.45;3.80;;;;;;;15.40;97.07;101135.44;5011558;28;20105;-57
2022/12/31 00:21:25;;;;;;;14.00;3.38;;;;;;;15.31;97.75;101134.09;5011008;28;20022;-57
2022/12/31 00:23:52;;;;;;;18.77;3.53;;;;;;;15.25;98.53;101143.13;5013974;28;20034;-57
2022/12/31 00:26:23;;;;;;;13.02;3.60;;;;;;;15.34;97.40;101149.03;5011520;28;20535;-57
2022/12/31 00:28:50;;;;;;;15.82;3.60;;;;;;;15.29;97.57;101141.63;5019286;28;20033;-58
2022/12/31 00:31:22;;;;;;;17.15;3.10;;;;;;;15.30;97.30;101154.03;5030704;28;20030;-57
2022/12/31 00:33:49;;;;;;;16.38;3.80;;;;;;;15.26;96.67;101142.06;5025905;28;20037;-58
2022/12/31 00:36:22;;;;;;;10.73;2.72;;;;;;;15.21;96.86;101145.47;5030683;28;20029;-57
2022/12/31 00:38:50;;;;;;;10.43;2.58;;;;;;;15.15;96.57;101149.06;5031290;28;20518;-57
2022/12/31 00:41:17;;;;;;;12.05;2.58;;;;;;;15.09;97.19;101149.16;5029925;28;20488;-57
2022/12/31 00:43:44;;;;;;;11.32;2.42;;;;;;;15.02;98.16;101160.03;5021382;28;20391;-57
2022/12/31 00:46:11;;;;;;;10.43;2.45;;;;;;;15.04;97.64;101150.66;5010753;28;20056;-57
2022/12/31 00:48:38;;;;;;;7.88;2.08;;;;;;;14.99;98.12;101147.84;5011418;28;20033;-57
2022/12/31 00:51:07;;;;;;;11.05;2.40;;;;;;;14.98;97.91;101158.84;5010476;28;20088;-58
2022/12/31 00:53:33;;;;;;;5.10;2.03;;;;;;;14.93;97.99;101158.69;5026258;28;20100;-57
2022/12/31 00:56:06;;;;;;;11.43;1.90;;;;;;;14.94;97.80;101158.47;5018651;28;20120;-57
2022/12/31 00:58:33;;;;;;;10.23;1.95;;;;;;;15.00;97.03;101145.97;5012847;28;20064;-57
2022/12/31 01:01:11;;;;;;;8.07;1.83;;;;;;;14.95;96.96;101145.84;5013634;28;20085;-57
2022/12/31 01:03:37;;;;;;;7.22;2.55;;;;;;;14.96;96.71;101148.28;5024837;28;20033;-62
2022/12/31 01:06:04;;;;;;;7.72;2.45;;;;;;;15.00;96.46;101133.31;5017588;28;20025;-58
2022/12/31 01:08:31;;;;;;;9.98;1.67;;;;;;;14.98;96.56;101139.97;5020536;28;20041;-57
2022/12/31 01:13:44;;;;;;;5.82;1.63;;;;;;;14.89;97.44;101136.78;5023208;28;20582;-56
2022/12/31 01:16:13;;;;;;;6.35;1.65;;;;;;;14.96;97.31;101125.91;5025533;28;20079;-57
2022/12/31 01:18:39;;;;;;;5.95;1.27;;;;;;;14.92;97.53;101136.31;5034364;28;20025;-57
2022/12/31 01:21:08;;;;;;;2.70;1.05;;;;;;;15.00;97.48;101130.63;5033648;28;20479;-57
2022/12/31 01:23:35;;;;;;;4.40;1.38;;;;;;;14.99;97.47;101130.81;5014359;28;20042;-57
2022/12/31 01:26:06;;;;;;;3.78;1.10;;;;;;;14.90;98.27;101133.03;4996762;28;20120;-57
2022/12/31 01:28:33;;;;;;;3.38;0.98;;;;;;;14.96;98.34;101140.19;5027029;28;20018;-57
2022/12/31 01:31:03;;;;;;;3.70;1.23;;;;;;;14.99;97.90;101138.91;5014132;28;20030;-57
2022/12/31 01:33:29;;;;;;;5.95;1.55;;;;;;;14.96;98.19;101134.81;5029688;28;20458;-56
2022/12/31 01:36:01;;;;;;;2.53;1.25;;;;;;;15.00;98.05;101122.53;5034009;28;20060;-57
2022/12/31 01:38:28;;;;;;;5.30;1.77;;;;;;;14.95;97.95;101125.09;5029535;28;20025;-57
2022/12/31 01:40:54;;;;;;;5.13;1.83;;;;;;;14.96;97.78;101115.13;5029103;28;20116;-57
2022/12/31 01:43:20;;;;;;;3.15;1.40;;;;;;;14.90;98.40;101114.16;5027161;28;20070;-57
2022/12/31 01:45:51;;;;;;;2.25;1.23;;;;;;;14.89;98.41;101104.44;5029259;28;20104;-56
2022/12/31 01:48:23;;;;;;;3.88;1.42;;;;;;;14.95;97.72;101103.53;5019056;28;20033;-56
2022/12/31 01:50:50;;;;;;;4.10;1.13;;;;;;;14.93;97.57;101097.50;5010718;28;20034;-57
2022/12/31 01:53:17;;;;;;;2.92;1.20;;;;;;;14.89;97.95;101099.03;5010947;28;20037;-57
2022/12/31 01:55:56;;;;;;;3.10;0.90;;;;;;;14.86;98.43;101088.72;5014403;23;20113;-57
2022/12/31 01:58:30;;;;;;;3.88;1.00;;;;;;;14.89;98.25;101101.75;5003699;28;20163;-57
2022/12/31 02:00:58;;;;;;;3.55;1.63;;;;;;;14.91;98.94;101090.72;5012138;28;20092;-57
2022/12/31 02:03:26;;;;;;;2.50;1.42;;;;;;;14.96;98.38;101089.00;5001042;28;20026;-57
2022/12/31 02:05:52;;;;;;;5.03;1.23;;;;;;;14.93;98.52;101092.13;5012321;28;20417;-57
2022/12/31 02:08:20;;;;;;;4.28;1.92;;;;;;;14.96;98.59;101099.78;5007128;28;20030;-57
2022/12/31 02:10:46;;;;;;;5.78;1.90;;;;;;;14.98;98.69;101099.53;4995151;28;20034;-57
2022/12/31 02:13:14;;;;;;;3.70;1.60;;;;;;;14.99;98.27;101093.09;4995436;28;20026;-56
2022/12/31 02:15:54;;;;;;;6.82;2.17;;;;;;;15.02;97.77;101106.94;4999019;28;20050;-57
2022/12/31 02:18:35;;;;;;;6.22;2.00;;;;;;;15.04;97.85;101109.41;4993796;28;20033;-57
2022/12/31 02:21:29;;;;;;;6.88;2.08;;;;;;;15.04;97.51;101112.09;5003604;28;20109;-57
2022/12/31 02:24:31;;;;;;;7.82;2.15;;;;;;;15.03;98.19;101113.16;5013952;28;20029;-57
2022/12/31 02:27:20;;;;;;;10.57;2.30;;;;;;;15.04;98.22;101118.31;5013895;28;20093;-57
2022/12/31 02:30:02;;;;;;;10.70;2.85;;;;;;;15.06;97.76;101126.19;4978620;28;20496;-57
2022/12/31 02:32:31;;;;;;;6.32;2.80;;;;;;;15.02;98.21;101115.03;5017459;28;20519;-56
2022/12/31 02:35:13;;;;;;;12.25;2.75;;;;;;;15.05;97.90;101108.38;5013156;28;20034;-57
2022/12/31 02:37:43;;;;;;;8.50;3.30;;;;;;;15.02;98.53;101106.13;5013167;28;20487;-56
2022/12/31 02:40:13;;;;;;;11.48;3.28;;;;;;;15.03;98.41;101116.66;5013048;28;20060;-56
2022/12/31 02:42:39;;;;;;;14.57;3.55;;;;;;;15.09;98.63;101108.72;5013036;28;20022;-57
2022/12/31 02:45:09;;;;;;;13.07;3.25;;;;;;;15.08;98.20;101115.16;5013248;28;20022;-57
2022/12/31 02:48:01;;;;;;;11.30;3.10;;;;;;;15.15;97.81;101107.78;5012916;28;20022;-57
2022/12/31 02:50:54;;;;;;;13.15;2.88;;;;;;;15.17;97.76;101111.94;5013040;28;20030;-57
2022/12/31 02:53:32;;;;;;;14.50;3.35;;;;;;;15.17;97.52;101113.81;5013011;28;20396;-57
2022/12/31 02:56:05;;;;;;;13.50;3.83;;;;;;;15.12;97.65;101110.97;5006336;28;20071;-57
2022/12/31 03:04:31;;;;;;;13.23;3.58;;;;;;;15.26;97.38;101118.63;5013399;28;20037;-57
2022/12/31 03:07:06;;;;;;;12.07;3.50;;;;;;;15.30;97.04;101116.28;5013086;28;20105;-57
2022/12/31 03:09:33;;;;;;;;;;;;;;;15.37;96.59;101116.19;5013414;28;20495;-57
2022/12/31 03:14:45;;;;;;;12.57;2.97;;;;;;;15.21;97.30;101125.75;5013240;28;20044;-56
2022/12/31 03:17:11;;;;;;;10.05;3.05;;;;;;;15.21;97.31;101123.06;5012814;28;20029;-57
2022/12/31 03:22:28;;;;;;;10.93;2.83;;;;;;;15.22;97.80;101120.16;5013163;28;20092;-57
2022/12/31 03:27:43;;;;;;;8.07;2.47;;;;;;;15.27;97.50;101116.78;5013051;28;20395;-56
2022/12/31 03:30:10;;;;;;;7.80;2.40;;;;;;;15.32;96.88;101120.41;5041740;28;20025;-57
2022/12/31 03:32:36;;;;;;;10.65;2.28;;;;;;;15.23;97.53;101131.75;5032172;28;20047;-57
2022/12/31 03:35:04;;;;;;;8.82;2.67;;;;;;;15.22;97.37;101130.13;5031727;28;20579;-57
2022/12/31 03:37:30;;;;;;;15.20;2.78;;;;;;;15.18;97.50;101123.53;5031980;28;20502;-57
2022/12/31 03:39:56;;;;;;;8.15;2.38;;;;;;;15.21;97.82;101123.06;5030877;28;20063;-56
2022/12/31 03:42:22;;;;;;;11.90;3.67;;;;;;;15.29;96.77;101128.13;5032075;28;20100;-57
2022/12/31 03:44:49;;;;;;;12.95;3.40;;;;;;;15.23;97.07;101126.38;5031941;28;20064;-56
2022/12/31 03:47:15;;;;;;;17.30;3.55;;;;;;;15.33;96.82;101123.94;5031698;28;20026;-57
2022/12/31 03:49:41;;;;;;;11.98;2.97;;;;;;;15.35;96.87;101131.78;5029834;28;20100;-56
2022/12/31 03:52:07;;;;;;;14.35;3.92;;;;;;;15.34;96.91;101122.88;5029839;28;20462;-57
2022/12/31 03:54:34;;;;;;;12.07;3.13;;;;;;;15.40;96.69;101126.53;5025719;28;20476;-57
2022/12/31 03:57:00;;;;;;;14.57;3.22;;;;;;;15.30;96.40;101127.06;5012008;28;20044;-57
2022/12/31 03:59:26;;;;;;;11.65;3.70;;;;;;;15.32;96.45;101127.66;5018824;28;20387;-57
2022/12/31 04:01:52;;;;;;;13.60;4.05;;;;;;;15.34;96.11;101133.66;5023739;28;20500;-56
2022/12/31 04:04:19;;;;;;;17.67;4.28;;;;;;;15.29;96.15;101123.56;5026541;28;20064;-57
2022/12/31 04:06:45;;;;;;;12.85;3.42;;;;;;;15.28;96.92;101119.22;5031898;28;20483;-57
2022/12/31 04:09:11;;;;;;;11.88;3.28;;;;;;;15.25;97.53;101108.88;5013902;28;20034;-57
2022/12/31 04:11:37;;;;;;;16.35;2.97;;;;;;;15.28;96.90;101124.63;5027368;28;20383;-57
2022/12/31 04:14:04;;;;;;;15.52;3.47;;;;;;;15.28;97.23;101123.81;5028602;28;20484;-57
2022/12/31 04:16:31;;;;;;;12.48;3.53;;;;;;;15.26;97.44;101118.63;5023060;28;20034;-57
2022/12/31 04:18:57;;;;;;;12.18;3.50;;;;;;;15.19;98.14;101120.59;5043739;28;20060;-57
2022/12/31 04:21:24;;;;;;;12.80;3.10;;;;;;;15.20;97.47;101124.13;5033738;28;20025;-57
2022/12/31 04:23:50;;;;;;;13.98;3.40;;;;;;;15.19;97.73;101123.28;5027988;28;20050;-57
2022/12/31 04:26:16;;;;;;;11.57;3.97;;;;;;;15.17;98.10;101124.59;5020889;28;20484;-57
2022/12/31 04:28:42;;;;;;;16.00;3.40;;;;;;;15.22;97.93;101125.53;5023822;28;20121;-57
2022/12/31 04:31:10;;;;;;;11.77;2.78;;;;;;;15.20;97.65;101129.50;5020221;28;20116;-57
2022/12/31 04:33:36;;;;;;;11.45;2.85;;;;;;;15.14;98.42;101127.72;5022586;28;20460;-57
2022/12/31 04:36:04;;;;;;;10.45;2.70;;;;;;;15.17;97.84;101128.09;5031312;28;20025;-57
2022/12/31 04:38:31;;;;;;;11.10;2.80;;;;;;;15.22;97.54;101130.13;5014088;28;20022;-57
2022/12/31 04:43:50;;;;;;;6.78;2.33;;;;;;;15.11;98.39;101122.81;5022111;28;20107;-57
2022/12/31 04:46:19;;;;;;;8.25;2.45;;;;;;;15.11;98.26;101123.63;5031472;28;20509;-57
2022/12/31 04:48:45;;;;;;;6.00;1.95;;;;;;;15.15;98.10;101123.97;5029783;28;20044;-57
2022/12/31 04:51:12;;;;;;;7.05;1.80;;;;;;;15.19;98.18;101128.69;5013709;28;20032;-57
2022/12/31 04:53:39;;;;;;;5.75;1.38;;;;;;;15.27;96.77;101130.25;5026532;28;20048;-57
2022/12/31 04:56:08;;;;;;;9.80;1.83;;;;;;;15.13;97.77;101132.31;5015095;28;20053;-57
2022/12/31 04:58:35;;;;;;;6.00;2.25;;;;;;;15.17;97.36;101128.09;5028093;28;20022;-57
2022/12/31 05:01:01;;;;;;;7.35;1.77;;;;;;;15.20;97.21;101126.81;5020662;28;20045;-57
2022/12/31 05:03:28;;;;;;;5.07;1.65;;;;;;;15.24;97.28;101128.00;5035636;28;20021;-58
2022/12/31 05:06:00;;;;;;;6.68;1.73;;;;;;;15.14;97.48;101131.25;5034816;28;20579;-57
2022/12/31 05:08:26;;;;;;;4.13;1.45;;;;;;;15.17;97.28;101122.72;5034726;28;20108;-57
2022/12/31 05:10:52;;;;;;;5.45;1.45;;;;;;;15.16;97.45;101126.47;5034354;28;20018;-57
2022/12/31 05:13:19;;;;;;;5.55;1.27;;;;;;;15.15;97.61;101126.66;5026956;28;20017;-57
2022/12/31 05:15:46;;;;;;;4.95;1.63;;;;;;;15.23;97.22;101131.75;5022785;28;20113;-57
2022/12/31 05:18:13;;;;;;;5.93;1.48;;;;;;;15.14;97.61;101127.72;5032978;28;20071;-57
2022/12/31 05:20:39;;;;;;;5.85;1.42;;;;;;;15.13;97.26;101131.47;5054701;28;20465;-57
2022/12/31 05:23:06;;;;;;;5.70;1.55;;;;;;;15.17;96.83;101127.28;5055459;28;20029;-57
2022/12/31 05:25:32;;;;;;;4.50;1.20;;;;;;;15.09;97.30;101132.97;5054854;28;20475;-56
2022/12/31 05:27:58;;;;;;;3.15;0.90;;;;;;;15.14;96.91;101136.63;5021037;28;20623;-57
2022/12/31 05:30:25;;;;;;;5.57;1.30;;;;;;;15.12;96.99;101129.84;5025445;28;20026;-57
2022/12/31 05:32:51;;;;;;;3.05;1.00;;;;;;;15.17;96.57;101127.28;5014878;28;20026;-57
2022/12/31 05:35:17;;;;;;;4.55;1.23;;;;;;;15.17;96.86;101124.59;5027348;28;20026;-56
2022/12/31 05:37:44;;;;;;;4.57;0.90;;;;;;;15.19;95.97;101126.00;5034638;28;20064;-57
2022/12/31 05:40:11;;;;;;;2.65;0.90;;;;;;;15.21;96.34;101141.94;5034227;28;20384;-57
2022/12/31 05:42:38;;;;;;;3.50;0.82;;;;;;;15.23;95.85;101124.47;5034389;28;20395;-57
2022/12/31 05:45:05;;;;;;;2.85;1.08;;;;;;;15.16;96.03;101122.94;5034203;28;20026;-57
2022/12/31 05:47:31;;;;;;;4.50;0.98;;;;;;;15.13;96.11;101126.91;5021471;28;20090;-57
2022/12/31 05:49:58;;;;;;;5.18;1.25;;;;;;;15.18;96.12;101124.34;5014236;28;20088;-57
2022/12/31 05:52:24;;;;;;;5.45;1.13;;;;;;;15.21;95.53;101128.44;5014518;28;20026;-56
2022/12/31 05:54:50;;;;;;;3.45;1.10;;;;;;;15.25;95.48;101124.25;5014477;28;20667;-56
2022/12/31 05:57:16;;;;;;;2.45;0.68;;;;;;;15.27;95.10;101136.47;5039974;28;20065;-57
2022/12/31 05:59:43;;;;;;;2.97;0.90;;;;;;;15.27;95.11;101135.66;5033761;28;20030;-57
2022/12/31 06:02:09;;;;;;;3.47;1.10;;;;;;;15.33;94.87;101126.63;5033204;28;20025;-57
2022/12/31 06:04:35;;;;;;;4.90;1.00;;;;;;;15.28;94.54;101134.59;5026334;28;20022;-57
2022/12/31 06:07:01;;;;;;;3.78;0.98;;;;;;;15.15;95.10;101129.38;5014467;28;20049;-57
2022/12/31 06:09:27;;;;;;;2.65;0.90;;;;;;;15.21;95.18;101134.69;5025118;28;20487;-57
2022/12/31 06:11:54;;;;;;;4.28;0.75;;;;;;;15.20;94.96;101138.41;5013441;28;20034;-57
2022/12/31 06:14:20;;;;;;;2.92;0.70;;;;;;;15.16;94.75;101131.84;5024752;28;20033;-57
2022/12/31 06:16:46;;;;;;;2.90;1.10;;;;;;;15.15;95.56;101132.88;5015541;28;20040;-57
2022/12/31 06:19:12;;;;;;;4.75;0.77;;;;;;;15.26;94.41;101133.97;5051997;28;20099;-57
2022/12/31 06:21:39;;;;;;;3.15;1.00;;;;;;;15.10;94.87;101140.00;5053694;28;20163;-57
2022/12/31 06:24:05;;;;;;;4.28;1.00;;;;;;;15.13;95.12;101132.31;5053843;28;20469;-58
2022/12/31 06:26:31;;;;;;;3.90;0.90;;;;;;;15.14;94.63;101141.22;5053633;28;20029;-57
2022/12/31 06:28:58;;;;;;;2.45;0.95;;;;;;;15.16;94.57;101141.81;5053522;28;20489;-57
2022/12/31 06:31:24;;;;;;;3.85;0.80;;;;;;;15.17;94.79;101136.19;5050782;28;20033;-57
2022/12/31 06:33:50;;;;;;;3.22;0.60;;;;;;;15.02;95.10;101133.06;5017579;28;20025;-57
2022/12/31 06:36:16;;;;;;;1.52;0.80;;;;;;;15.08;95.49;101126.78;5025992;28;20037;-57
2022/12/31 06:38:43;;;;;;;2.85;0.70;;;;;;;15.00;95.64;101127.91;5030667;28;20066;-57
2022/12/31 06:41:11;;;;;;;2.60;0.80;;;;;;;15.10;95.15;101132.75;5017316;28;20036;-57
2022/12/31 06:43:39;;;;;;;2.15;0.80;;;;;;;15.08;94.90;101115.97;5023172;28;20045;-57
2022/12/31 06:46:08;;;;;;;3.22;0.73;;;;;;;15.04;94.84;101125.56;5013344;28;20033;-58
2022/12/31 06:48:34;;;;;;;1.50;0.73;;;;;;;15.06;95.18;101126.19;5030967;28;20025;-56
2022/12/31 06:51:09;;;;;;;4.80;0.90;;;;;;;15.07;94.42;101118.91;5032939;28;20041;-57
2022/12/31 06:53:36;;;;;;;4.57;1.13;;;;;;;15.03;95.05;101118.53;5031328;28;20021;-57
2022/12/31 06:56:06;;;;;;;2.42;0.70;;;;;;;15.06;94.34;101123.50;5043297;28;20052;-57
2022/12/31 06:58:32;;;;;;;2.65;0.85;;;;;;;15.02;94.80;101115.03;5032674;28;20497;-56
2022/12/31 07:01:14;;;;;;;2.88;0.82;;;;;;;15.04;94.33;101109.41;5031975;28;20026;-57
2022/12/31 07:04:00;;;;;;;5.88;0.90;;;;;;;15.03;94.43;101119.38;5032679;28;20032;-57
2022/12/31 07:06:33;;;;;;;4.85;1.23;;;;;;;14.98;94.89;101119.22;5032675;28;20037;-57
2022/12/31 07:09:02;;;;;;;2.42;1.00;;;;;;;15.00;94.43;101114.44;5032312;28;20521;-57
2022/12/31 07:11:38;;;;;;;1.58;0.45;;;;;;;15.07;94.03;101117.03;5032205;28;20056;-57
2022/12/31 07:14:25;;;;;;;6.32;1.02;;;;;;;15.16;93.82;101129.16;5032449;28;20033;-57
2022/12/31 07:17:08;;;;;;;2.88;0.50;;;;;;;15.15;93.61;101116.69;5014091;28;20113;-57
2022/12/31 07:19:34;;;;;;;1.20;0.40;;;;;;;15.07;93.80;101105.44;5048800;28;20025;-57
2022/12/31 07:22:02;;;;;;;4.68;0.63;;;;;;;15.02;93.95;101104.25;5052315;28;20104;-57
2022/12/31 07:24:29;;;;;;;1.13;0.68;;;;;;;15.07;93.57;101106.25;5052524;28;20025;-57
2022/12/31 07:27:06;;;;;;;2.35;0.55;;;;;;;15.04;94.23;101112.91;5052331;28;20025;-57
2022/12/31 07:29:36;;;;;;;2.13;0.55;;;;;;;15.02;93.90;101108.81;5052290;28;20107;-58
2022/12/31 07:32:40;;;;;;;3.40;0.55;;;;;;;15.19;93.28;101104.41;5052065;28;20403;-57
2022/12/31 07:35:11;;;;;;;2.10;0.80;;;;;;;15.09;93.64;101106.84;5024504;28;20033;-57
2022/12/31 07:37:50;;;;;;;1.88;0.40;;;;;;;15.00;93.54;101106.34;5012452;28;20030;-57
2022/12/31 07:40:23;;;;;;;3.55;0.73;;;;;;;15.07;93.52;101102.75;5023434;28;20025;-57
2022/12/31 07:43:11;;;;;;;3.55;0.75;;;;;;;15.10;93.27;101094.19;5032135;28;20108;-57
2022/12/31 07:45:42;;;;;;;1.25;0.60;;;;;;;14.96;93.56;101094.38;5029280;28;20479;-57
2022/12/31 07:48:27;;;;;;;2.53;0.45;;;;;;;15.02;93.73;101092.63;5020226;28;20518;-57
2022/12/31 07:50:56;;;;;;;1.40;0.40;;;;;;;15.07;93.38;101094.66;5022675;28;20029;-57
2022/12/31 07:53:24;;;;;;;2.88;0.70;;;;;;;15.05;93.49;101086.81;5026194;28;20079;-57
2022/12/31 07:55:56;;;;;;;3.42;0.70;;;;;;;15.08;92.80;101088.22;5036027;28;20049;-57
2022/12/31 07:58:28;;;;;;;1.45;0.60;;;;;;;15.07;93.16;101075.78;5019978;28;20036;-57
2022/12/31 08:00:56;;;;;;;3.33;0.60;;;;;;;15.10;92.65;101076.13;5031434;28;20049;-57
2022/12/31 08:03:25;;;;;;;2.05;0.60;;;;;;;15.15;92.04;101068.16;5031791;28;20037;-57
2022/12/31 08:06:13;;;;;;;0.77;0.52;;;;;;;15.16;91.99;101060.94;5031468;28;20504;-56
2022/12/31 08:09:01;;;;;;;3.97;0.60;;;;;;;15.04;92.50;101069.78;5031770;28;20025;-57
2022/12/31 08:11:46;;;;;;;0.82;0.50;;;;;;;15.04;92.54;101061.69;5031886;28;20052;-57
2022/12/31 08:14:13;;;;;;;1.70;0.70;;;;;;;15.15;91.65;101067.34;5032118;28;20029;-56
2022/12/31 08:16:40;;;;;;;1.20;0.63;;;;;;;15.15;92.01;101070.88;5012448;28;20037;-57
2022/12/31 08:19:19;;;;;;;1.75;0.70;;;;;;;15.16;91.75;101071.72;5047499;28;20033;-57
2022/12/31 08:21:54;;;;;;;1.02;0.50;;;;;;;15.17;91.27;101067.97;5051546;28;20021;-56
2022/12/31 08:24:35;;;;;;;;;;;;;;;15.22;91.51;101068.09;5052071;28;20033;-57
2022/12/31 08:27:07;;;;;;;2.05;0.85;;;;;;;15.11;91.32;101058.09;5053894;28;20370;-57
2022/12/31 08:30:04;;;;;;;3.88;1.00;;;;;;;15.03;91.92;101053.84;5055586;28;20025;-57
2022/12/31 08:33:02;;;;;;;3.67;0.98;;;;;;;14.95;92.35;101054.19;5055537;28;20422;-57
2022/12/31 08:35:31;;;;;;;1.58;0.50;;;;;;;15.00;92.31;101057.84;5049099;28;20064;-57
2022/12/31 08:38:06;;;;;;;1.15;0.63;;;;;;;14.94;92.54;101055.25;5055512;28;20033;-57
2022/12/31 08:41:11;;;;;;;3.25;0.90;;;;;;;15.03;92.14;101051.97;5055521;28;20047;-57
2022/12/31 08:43:40;;;;;;;1.92;0.70;;;;;;;15.10;91.87;101041.06;5055447;28;20056;-57
2022/12/31 08:46:16;;;;;;;3.78;0.85;;;;;;;15.09;91.41;101038.63;5055465;28;20021;-56
2022/12/31 08:48:44;;;;;;;3.45;1.05;;;;;;;15.01;92.01;101037.09;5055548;28;20449;-56
2022/12/31 08:51:22;;;;;;;2.28;1.20;;;;;;;15.09;91.61;101038.63;5046470;28;20108;-57
2022/12/31 08:53:49;;;;;;;3.70;1.30;;;;;;;15.02;91.74;101036.84;5035337;28;20140;-57
2022/12/31 08:56:29;;;;;;;1.92;0.80;;;;;;;14.95;92.18;101033.44;5044024;28;20156;-57
2022/12/31 08:59:13;;;;;;;7.03;1.13;;;;;;;15.17;91.41;101028.34;5034541;28;20022;-57
2022/12/31 09:01:53;;;;;;;4.05;1.00;;;;;;;15.18;90.96;101021.88;5022386;28;20105;-57
2022/12/31 09:04:43;;;;;;;5.82;1.23;;;;;;;15.11;91.23;101014.97;5020264;28;20049;-57
2022/12/31 09:07:11;;;;;;;3.45;1.27;;;;;;;15.21;90.11;101004.41;5033534;28;20057;-57
2022/12/31 09:09:37;;;;;;;3.25;1.20;;;;;;;14.94;91.17;101002.16;5015856;28;20029;-57
2022/12/31 09:12:27;;;;;;;5.88;1.10;;;;;;;14.95;91.46;101000.28;5025821;28;20026;-57
2022/12/31 09:14:59;;;;;;;6.35;1.35;;;;;;;14.97;91.55;101001.69;5014652;28;20026;-57
2022/12/31 09:17:25;;;;;;;4.55;1.50;;;;;;;14.65;92.71;100997.59;5017463;28;20120;-57
2022/12/31 09:19:52;;;;;;;5.25;1.40;;;;;;;14.78;92.80;100984.78;5044923;28;20048;-57
2022/12/31 09:22:18;;;;;;;4.25;1.42;;;;;;;14.65;92.56;100973.34;5054819;28;20042;-56
2022/12/31 09:24:45;;;;;;;6.53;1.35;;;;;;;14.73;92.70;100964.97;5054347;28;20029;-57
2022/12/31 09:27:41;;;;;;;4.53;1.30;;;;;;;14.68;92.64;100960.25;5054601;28;20025;-57
2022/12/31 09:30:11;;;;;;;5.00;1.50;;;;;;;14.43;93.03;100963.06;5012703;28;20046;-56
2022/12/31 09:32:44;;;;;;;5.82;1.40;;;;;;;14.40;93.79;100965.41;5015040;28;20098;-56
2022/12/31 09:35:24;;;;;;;3.30;1.30;;;;;;;14.30;94.48;100960.56;5014740;28;20476;-56
2022/12/31 09:37:57;;;;;;;7.35;1.73;;;;;;;14.28;94.21;100957.28;5013439;28;20197;-56
2022/12/31 09:40:41;;;;;;;8.50;2.40;;;;;;;14.27;94.22;100961.03;5014372;28;20030;-56
2022/12/31 09:43:35;;;;;;;7.50;2.00;;;;;;;14.26;93.71;100960.16;5014681;28;20049;-56
2022/12/31 09:46:12;;;;;;;10.93;2.30;;;;;;;14.15;94.57;100947.47;5014579;28;20030;-56
2022/12/31 09:49:11;;;;;;;8.05;2.00;;;;;;;14.11;95.01;100951.69;5014571;28;20037;-56
2022/12/31 09:51:56;;;;;;;4.38;1.60;;;;;;;14.19;94.10;100958.63;5019413;28;20025;-56
2022/12/31 09:54:28;;;;;;;6.55;1.52;;;;;;;14.38;93.60;100951.31;5041468;28;20030;-56
2022/12/31 09:57:27;;;;;;;6.25;1.67;;;;;;;14.06;94.32;100948.03;5033810;28;20045;-56
2022/12/31 10:00:23;;;;;;;7.65;1.52;;;;;;;14.08;94.85;100933.28;5033694;28;20041;-56
2022/12/31 10:03:24;;;;;;;;;;;;;;;13.94;95.74;100924.59;5034176;28;20025;-56
2022/12/31 10:06:17;;;;;;;3.95;1.50;;;;;;;14.09;95.55;100907.19;4953405;29;20284;-57
2022/12/31 10:08:55;;;;;;;5.70;1.75;;;;;;;14.14;95.09;100910.03;5012589;28;20129;-56
2022/12/31 10:11:36;;;;;;;8.75;1.80;;;;;;;14.10;94.58;100916.91;5031650;28;20067;-56
2022/12/31 10:14:11;;;;;;;7.35;2.10;;;;;;;14.14;94.38;100908.16;5033546;28;20029;-56
2022/12/31 10:17:08;;;;;;;11.85;2.03;;;;;;;14.08;95.32;100897.47;5019097;28;20057;-57
2022/12/31 10:19:54;;;;;;;5.10;1.73;;;;;;;14.03;95.30;100894.66;5022206;28;20052;-56
2022/12/31 10:22:58;;;;;;;8.52;2.20;;;;;;;14.08;95.46;100894.78;5014510;28;20456;-56
2022/12/31 10:25:51;;;;;;;9.27;2.40;;;;;;;13.95;95.90;100893.09;4997743;28;20045;-56
2022/12/31 10:28:39;;;;;;;10.52;2.47;;;;;;;13.99;96.47;100867.34;5013855;28;20101;-57
2022/12/31 10:31:34;;;;;;;6.63;1.88;;;;;;;13.90;96.86;100874.94;5023309;28;20083;-56
2022/12/31 10:34:14;;;;;;;10.10;2.85;;;;;;;13.89;96.50;100883.25;5033652;28;20033;-56
2022/12/31 10:37:03;;;;;;;6.93;2.10;;;;;;;13.99;96.94;100870.06;5033456;28;20164;-56
2022/12/31 10:39:31;;;;;;;39.70;3.13;;;;;;;14.02;96.29;100858.03;5033051;28;20395;-56
2022/12/31 10:42:06;;;;;;;10.93;2.13;;;;;;;13.81;97.58;100854.78;5033448;28;20030;-56
2022/12/31 10:45:14;;;;;;;7.88;3.05;;;;;;;14.04;96.77;100853.22;5013536;28;20022;-56
2022/12/31 10:48:07;;;;;;;6.60;2.08;;;;;;;14.06;96.09;100833.13;4967675;28;20088;-56
2022/12/31 10:51:23;;;;;;;4.75;1.60;;;;;;;14.10;96.40;100825.41;5012724;28;20092;-57
2022/12/31 10:54:19;;;;;;;8.33;2.40;;;;;;;13.95;96.82;100829.34;5013274;28;20029;-57
2022/12/31 10:57:07;;;;;;;5.93;2.15;;;;;;;14.02;97.61;100825.72;5025990;28;20294;-57
2022/12/31 11:00:13;;;;;;;3.80;1.67;;;;;;;13.95;97.62;100833.91;5035350;28;20222;-56
2022/12/31 11:02:57;;;;;;;4.15;1.70;;;;;;;13.91;98.64;100825.47;5032887;28;20075;-57
2022/12/31 11:05:59;;;;;;;5.90;2.35;;;;;;;13.92;98.85;100828.97;5032670;28;20112;-57
2022/12/31 11:08:35;;;;;;;6.43;2.83;;;;;;;14.08;98.08;100830.19;5032661;28;20095;-57
2022/12/31 11:11:26;;;;;;;5.78;2.97;;;;;;;14.12;98.05;100829.50;5032300;28;20111;-57
2022/12/31 11:13:55;;;;;;;4.75;2.78;;;;;;;14.15;97.87;100825.53;5032113;28;20025;-57
2022/12/31 11:16:52;;;;;;;5.70;3.20;;;;;;;14.03;98.13;100812.03;5013497;28;20029;-57
2022/12/31 11:19:35;;;;;;;5.55;3.30;;;;;;;14.09;98.28;100800.34;5012544;28;20040;-57
2022/12/31 11:22:10;;;;;;;5.60;3.50;;;;;;;14.22;98.13;100785.88;5012779;28;20030;-57
2022/12/31 11:25:01;;;;;;;5.07;4.03;;;;;;;14.24;97.33;100795.38;5012897;28;20455;-56
2022/12/31 11:27:48;;;;;;;5.00;3.42;;;;;;;14.25;97.69;100788.09;5012669;28;20379;-58
2022/12/31 11:30:20;;;;;;;6.75;3.35;;;;;;;14.35;96.56;100761.44;5028340;28;20045;-57
2022/12/31 11:33:14;;;;;;;5.85;3.63;;;;;;;14.03;97.85;100768.97;5012586;28;20109;-57
2022/12/31 11:35:56;;;;;;;6.32;3.90;;;;;;;14.11;98.12;100751.69;5013722;28;20021;-58
2022/12/31 11:38:32;;;;;;;6.93;3.70;;;;;;;14.11;98.64;100740.94;5019782;28;20510;-57
2022/12/31 11:41:15;;;;;;;5.20;3.25;;;;;;;14.28;97.57;100749.97;5023013;28;20104;-57
2022/12/31 11:43:47;;;;;;;4.93;3.10;;;;;;;14.30;97.09;100752.41;5031883;28;20041;-57
2022/12/31 11:46:35;;;;;;;4.65;2.83;;;;;;;14.31;96.66;100751.34;5032093;28;20029;-57
2022/12/31 11:49:28;;;;;;;5.88;3.00;;;;;;;14.38;96.42;100754.75;5018670;28;20036;-57
2022/12/31 11:52:11;;;;;;;3.50;2.80;;;;;;;14.44;96.55;100749.28;5027630;28;20541;-57
2022/12/31 11:55:23;;;;;;;3.35;2.47;;;;;;;14.45;95.41;100734.75;5031155;28;20056;-58
2022/12/31 11:57:51;;;;;;;4.35;2.72;;;;;;;14.37;95.95;100723.50;5013772;28;20044;-57
2022/12/31 12:00:26;;;;;;;4.97;3.03;;;;;;;14.39;96.10;100710.63;5031133;28;20025;-57
2022/12/31 12:03:05;;;;;;;3.70;2.67;;;;;;;14.41;96.04;100719.28;5031427;28;20471;-57
2022/12/31 12:05:32;;;;;;;3.28;2.30;;;;;;;14.56;95.48;100721.56;5031480;28;20029;-57
2022/12/31 12:07:59;;;;;;;2.90;2.00;;;;;;;14.49;95.24;100710.88;5031149;28;20027;-57
2022/12/31 12:10:32;;;;;;;3.00;1.77;;;;;;;14.61;95.30;100716.28;5031255;28;20388;-57
2022/12/31 12:12:58;;;;;;;2.10;1.63;;;;;;;14.61;95.14;100718.97;5031377;28;20056;-57
2022/12/31 12:15:31;;;;;;;2.55;1.40;;;;;;;14.73;94.59;100717.91;5031514;28;20476;-58